createdAt,value
2019-03-31T00:01:08.875Z,1.4
2019-03-31T00:06:01.594Z,1.5
2019-03-31T00:11:01.449Z,1.4
2019-03-31T00:16:01.494Z,1.4
2019-03-31T00:21:01.433Z,1.4
2019-03-31T00:26:01.511Z,1.4
2019-03-31T00:31:01.456Z,1.2
2019-03-31T00:36:01.609Z,1.2
2019-03-31T00:41:01.459Z,1.0
2019-03-31T00:46:01.554Z,0.9
2019-03-31T00:51:01.522Z,1.2
2019-03-31T00:56:01.523Z,1.0
2019-03-31T01:00:01.439Z,1.1
2019-03-31T01:05:01.520Z,1.0
2019-03-31T01:10:01.679Z,0.8
2019-03-31T01:15:01.444Z,0.6
2019-03-31T01:20:01.478Z,0.5
2019-03-31T01:30:06.508Z,0.3
2019-03-31T01:35:01.542Z,0.3
2019-03-31T01:40:01.513Z,0.3
2019-03-31T01:45:01.544Z,0.3
2019-03-31T01:50:01.525Z,0.3
2019-03-31T01:55:01.602Z,0.2
2019-03-31T02:00:01.467Z,0.2
2019-03-31T02:15:01.048Z,0.6
2019-03-31T02:20:01.027Z,0.3
2019-03-31T02:25:01.035Z,0.2
2019-03-31T02:30:01.155Z,0.2
2019-03-31T02:35:01.240Z,0.2
2019-03-31T02:40:01.279Z,0.1
2019-03-31T02:45:01.222Z,0.0
2019-03-31T02:55:01.410Z,0.1
2019-03-31T03:00:01.047Z,0.1
2019-03-31T03:15:01.031Z,0.1
2019-03-31T03:20:01.029Z,0.0
2019-03-31T03:25:01.085Z,0.0
2019-03-31T03:30:01.203Z,0.0
2019-03-31T03:35:01.672Z,0.1
2019-03-31T03:40:01.295Z,0.1
2019-03-31T03:45:01.148Z,0.1
2019-03-31T03:50:01.142Z,0.1
2019-03-31T03:55:01.134Z,0.1
2019-03-31T04:00:01.075Z,0.0
2019-03-31T04:05:01.401Z,0.1
2019-03-31T04:10:01.060Z,0.0
2019-03-31T04:15:01.193Z,0.0
2019-03-31T04:25:01.214Z,0.1
2019-03-31T04:30:01.211Z,0.0
2019-03-31T04:35:01.263Z,0.0
2019-03-31T04:40:01.053Z,0.0
2019-03-31T04:45:01.143Z,0.0
2019-03-31T04:50:01.099Z,0.0
2019-03-31T04:55:01.171Z,0.0
2019-03-31T05:00:01.094Z,0.0
2019-03-31T05:05:01.135Z,0.0
2019-03-31T05:10:01.094Z,0.0
2019-03-31T05:15:01.167Z,0.0
2019-03-31T05:25:01.277Z,0.1
2019-03-31T05:30:01.050Z,0.1
2019-03-31T05:35:06.129Z,0.1
2019-03-31T05:45:01.210Z,0.1
2019-03-31T05:50:01.162Z,0.1
2019-03-31T05:55:01.072Z,0.1
2019-03-31T06:00:01.041Z,0.2
2019-03-31T06:05:01.083Z,0.2
2019-03-31T06:15:02.114Z,0.2
2019-03-31T06:20:01.079Z,0.2
2019-03-31T06:25:01.207Z,0.1
2019-03-31T06:30:01.152Z,0.2
2019-03-31T06:35:01.095Z,0.3
2019-03-31T06:40:01.178Z,0.4
2019-03-31T06:45:01.262Z,0.6
2019-03-31T06:50:01.158Z,0.9
2019-03-31T06:55:01.120Z,1.1
2019-03-31T07:00:01.157Z,1.5
2019-03-31T07:05:02.356Z,1.7
2019-03-31T07:10:01.121Z,2.0
2019-03-31T07:15:01.207Z,1.6
2019-03-31T07:20:01.147Z,1.6
2019-03-31T07:25:01.246Z,1.2
2019-03-31T07:30:01.076Z,1.3
2019-03-31T07:35:01.170Z,0.9
2019-03-31T07:40:01.999Z,1.2
2019-03-31T07:45:01.168Z,1.2
2019-03-31T07:50:01.142Z,1.2
2019-03-31T07:55:01.119Z,0.8
2019-03-31T08:00:01.264Z,0.8
2019-03-31T08:05:01.283Z,0.7
2019-03-31T08:10:01.136Z,0.7
2019-03-31T08:15:01.155Z,0.5
2019-03-31T08:20:01.153Z,0.5
2019-03-31T08:25:01.155Z,0.3
2019-03-31T08:30:01.807Z,0.2
2019-03-31T08:35:01.209Z,0.3
2019-03-31T08:40:01.163Z,0.5
2019-03-31T08:45:01.194Z,0.5
2019-03-31T08:55:01.249Z,0.5
2019-03-31T09:00:01.530Z,0.2
2019-03-31T09:05:01.216Z,0.0
2019-03-31T09:10:01.144Z,0.0
2019-03-31T09:15:01.194Z,0.0
2019-03-31T09:20:01.150Z,0.0
2019-03-31T09:30:01.214Z,0.0
2019-03-31T09:40:01.243Z,0.0
2019-03-31T09:45:01.211Z,0.0
2019-03-31T09:50:01.165Z,0.0
2019-03-31T10:00:01.637Z,0.0
2019-03-31T10:10:01.290Z,0.0
2019-03-31T10:15:01.255Z,0.0
2019-03-31T10:25:01.358Z,0.0
2019-03-31T10:30:01.190Z,0.1
2019-03-31T10:35:01.235Z,0.1
2019-03-31T10:40:01.182Z,0.3
2019-03-31T10:45:01.244Z,0.3
2019-03-31T10:50:01.145Z,0.3
2019-03-31T10:55:01.300Z,0.2
2019-03-31T11:00:01.211Z,0.2
2019-03-31T11:05:02.154Z,0.2
2019-03-31T11:10:01.178Z,0.4
2019-03-31T11:15:01.345Z,0.4
2019-03-31T11:20:01.792Z,0.4
2019-03-31T11:25:01.329Z,0.4
2019-03-31T11:30:01.235Z,0.2
2019-03-31T11:35:01.280Z,0.0
2019-03-31T11:45:01.200Z,0.0
2019-03-31T11:50:01.209Z,0.0
2019-03-31T12:00:01.276Z,0.0
2019-03-31T12:05:01.265Z,0.0
2019-03-31T12:10:01.209Z,0.0
2019-03-31T12:15:01.867Z,0.0
2019-03-31T12:20:01.156Z,0.0
2019-03-31T12:25:01.348Z,0.0
2019-03-31T12:30:01.226Z,0.0
2019-03-31T12:35:01.316Z,0.0
2019-03-31T12:40:01.233Z,0.0
2019-03-31T12:45:01.494Z,0.0
2019-03-31T12:55:01.337Z,0.0
2019-03-31T13:00:01.192Z,0.0
2019-03-31T13:05:01.266Z,0.0
2019-03-31T13:10:01.230Z,0.0
2019-03-31T13:15:01.324Z,0.0
2019-03-31T13:30:02.267Z,0.0
2019-03-31T13:40:01.371Z,0.0
2019-03-31T13:45:01.244Z,0.0
2019-03-31T13:50:01.257Z,0.0
2019-03-31T13:55:01.453Z,0.0
2019-03-31T14:00:01.261Z,0.0
2019-03-31T14:05:01.325Z,0.0
2019-03-31T14:10:01.247Z,0.0
2019-03-31T14:15:01.318Z,0.2
2019-03-31T14:20:01.258Z,0.2
2019-03-31T14:25:01.267Z,0.2
2019-03-31T14:30:01.253Z,0.2
2019-03-31T14:40:01.396Z,0.0
2019-03-31T14:45:01.340Z,0.0
2019-03-31T14:55:01.403Z,0.1
2019-03-31T15:00:15.735Z,0.1
2019-03-31T15:05:01.397Z,0.1
2019-03-31T15:10:02.259Z,0.1
2019-03-31T15:15:01.336Z,0.0
2019-03-31T15:20:01.342Z,0.0
2019-03-31T15:25:01.314Z,0.0
2019-03-31T15:30:01.308Z,0.0
2019-03-31T15:35:01.360Z,0.0
2019-03-31T15:45:01.363Z,0.0
2019-03-31T15:55:01.435Z,0.0
2019-03-31T16:00:01.298Z,0.0
2019-03-31T16:05:01.388Z,0.1
2019-03-31T16:10:01.285Z,0.1
2019-03-31T16:15:01.375Z,0.1
2019-03-31T16:20:01.311Z,0.1
2019-03-31T16:25:01.370Z,0.1
2019-03-31T16:30:01.668Z,0.0
2019-03-31T16:35:01.428Z,0.1
2019-03-31T16:40:01.325Z,0.3
2019-03-31T16:45:01.385Z,0.3
2019-03-31T16:50:01.338Z,0.3
2019-03-31T16:55:01.378Z,0.5
2019-03-31T17:00:01.345Z,0.6
2019-03-31T17:05:01.405Z,0.6
2019-03-31T17:10:01.343Z,0.6
2019-03-31T17:15:01.403Z,0.6
2019-03-31T17:20:01.598Z,0.6
2019-03-31T17:25:01.527Z,0.4
2019-03-31T17:30:01.328Z,0.2
2019-03-31T17:45:01.415Z,0.2
2019-03-31T17:50:01.382Z,0.2
2019-03-31T17:55:01.503Z,0.2
2019-03-31T18:00:01.514Z,0.2
2019-03-31T18:10:01.419Z,1.0
2019-03-31T18:15:01.417Z,1.4
2019-03-31T18:20:01.346Z,2.7
2019-03-31T18:25:01.426Z,3.9
2019-03-31T18:30:01.355Z,6.0
2019-03-31T18:35:01.481Z,6.6
2019-03-31T18:40:01.374Z,8.2
2019-03-31T18:45:01.434Z,7.9
2019-03-31T18:50:01.359Z,7.5
2019-03-31T18:55:01.563Z,5.7
2019-03-31T19:00:01.495Z,4.6
2019-03-31T19:05:01.507Z,3.0
2019-03-31T19:15:01.435Z,2.5
2019-03-31T19:20:01.444Z,3.5
2019-03-31T19:25:01.448Z,4.8
2019-03-31T19:30:01.408Z,4.8
2019-03-31T19:35:01.513Z,5.0
2019-03-31T19:40:02.385Z,5.0
2019-03-31T19:45:01.466Z,4.4
2019-03-31T19:50:06.382Z,3.4
2019-03-31T19:55:06.464Z,4.0
2019-03-31T20:00:01.430Z,3.2
2019-03-31T20:05:01.505Z,2.6
2019-03-31T20:10:06.479Z,2.1
2019-03-31T20:15:01.522Z,1.4
2019-03-31T20:20:01.393Z,0.5
2019-03-31T20:25:01.464Z,0.3
2019-03-31T20:30:01.403Z,0.1
2019-03-31T20:35:01.540Z,0.0
2019-03-31T20:40:01.484Z,0.0
2019-03-31T20:45:01.520Z,0.0
2019-03-31T20:50:01.411Z,0.0
2019-03-31T20:55:17.163Z,0.0
2019-03-31T21:00:01.415Z,0.0
2019-03-31T21:15:01.426Z,0.1
2019-03-31T21:20:01.458Z,0.2
2019-03-31T21:25:01.444Z,0.4
2019-03-31T21:30:01.421Z,0.4
2019-03-31T21:35:01.588Z,0.2
2019-03-31T21:45:01.523Z,0.1
2019-03-31T21:50:01.468Z,0.0
2019-03-31T21:55:01.589Z,0.0
2019-03-31T22:00:01.494Z,0.0
2019-03-31T22:05:01.562Z,0.0
2019-03-31T22:10:02.454Z,0.4
2019-03-31T22:15:01.571Z,0.4
2019-03-31T22:25:01.578Z,0.6
2019-03-31T22:30:01.519Z,0.7
2019-03-31T22:35:01.585Z,0.5
2019-03-31T22:40:01.530Z,0.6
2019-03-31T22:45:01.538Z,0.4
2019-03-31T22:50:01.489Z,0.3
2019-03-31T22:55:01.537Z,0.3
2019-03-31T23:00:01.439Z,0.1
2019-03-31T23:05:01.573Z,0.1
2019-03-31T23:10:01.517Z,0.1
2019-03-31T23:15:01.546Z,0.0
2019-03-31T23:20:01.490Z,0.0
2019-03-31T23:25:01.530Z,0.0
2019-03-31T23:30:01.472Z,0.0
2019-03-31T23:35:01.537Z,0.0
2019-03-31T23:40:01.518Z,0.0
2019-03-31T23:45:01.569Z,0.0
2019-03-31T23:50:01.476Z,0.0
